Nearby METAR Reports

 

KMTN - Baltimore/Martin, Maryland, USA
Distance from station: SSE 8mi, 13km
Updated: Wed, 23-Jul-2014 8:02pm EDT
Heavy thunderstorm, Rain, Overcast
Heavy thunderstorm, Rain, Overcast
 Wind from WNW
Wind: WNW 21 mph , 33 km/h, Gust: 39 mph , 63 km/h
Temperature: 82°F , 28°C
Heat Index: 86°F , 30°C
Dew Point: 70°F , 21°C
Humidity: 66%
Barometer: 29.89 inHg , 1012.2 hPa
Summary: Heavy thunderstorm, Rain
Clouds: Overcast
Visibility: 1 mile , 2 km
Cloud details: Partly cloudy 1300 ft
Overcast 2300 ft
2014/07/24 00:02 KMTN 240002Z 29018G34KT 1SM +TSRA SCT013 OVC023 28/21 A2989
KDMH - Baltimore/Dwntwn, Maryland, USA
Distance from station: SW 12mi, 19km
Updated: Wed, 23-Jul-2014 7:54pm EDT

 
Temperature: 75°F , 24°C
Dew Point: 70°F , 21°C
Humidity: 83%
Barometer: 29.86 inHg , 1011.2 hPa
2014/07/23 23:54 KDMH 232354Z AUTO 24/21 A2986 RMK AO1 SLP112 P0007 60007 T02440211 10356 20244 53016
 
KBWI - Balto/Wash Intl, Maryland, USA
Distance from station: SSW 20mi, 33km
Updated: Wed, 23-Jul-2014 7:54pm EDT
Light thunderstorm, Rain, Mostly cloudy
Light thunderstorm, Rain, Mostly cloudy
 Wind from NNW
Wind: NNW 10 mph , 17 km/h, Gust: 21 mph , 33 km/h
Temperature: 82°F , 28°C
Heat Index: 85°F , 29°C
Dew Point: 68°F , 20°C
Humidity: 62%
Barometer: 29.85 inHg , 1010.8 hPa
Summary: Light thunderstorm, Rain
Clouds: Mostly cloudy
Visibility: 8 miles , 13 km
Cloud details: Few Clouds 4400 ft
Partly cloudy 5500 ft
Mostly cloudy 8000 ft
Mostly cloudy 25000 ft
2014/07/23 23:54 KBWI 232354Z 34009G18KT 8SM -TSRA FEW044CB SCT055 BKN080 BKN250 28/20 A2985 RMK AO2 WSHFT 2339 TSB32RAB46 SLP106 FRQ LTGICCG N-NE TS N-NE MOV E P0000 60000 T02780200 10344 20278 53010
KDMW - Carroll Cnty, Maryland, USA
Distance from station: WNW 30mi, 48km
Updated: Wed, 23-Jul-2014 7:55pm EDT
Nearby thunderstorm, Partly cloudy
Nearby thunderstorm, Partly cloudy
 Wind from SSE
Wind: SSE 3 mph , 6 km/h
Temperature: 73°F , 23°C
Dew Point: 72°F , 22°C
Humidity: 94%
Barometer: 29.89 inHg , 1012.2 hPa
Summary: Nearby Thunderstorm
Clouds: Partly cloudy
Visibility: 10 miles , 16 km
Cloud details: Partly cloudy 9500 ft
2014/07/23 23:55 KDMW 232355Z AUTO 15003KT 10SM VCTS SCT095 23/22 A2989 RMK AO2 LTG DSNT NE THRU SE
 
KNAK - Annapolis/Naval, Maryland, USA
Distance from station: S 30mi, 48km
Updated: Wed, 23-Jul-2014 7:54pm EDT
Clear
Clear
 Wind from S
Wind: S 12 mph , 19 km/h
Temperature: 82°F , 28°C
Heat Index: 89°F , 32°C
Dew Point: 75°F , 24°C
Humidity: 79%
Barometer: 29.83 inHg , 1010.2 hPa
Clouds: Clear
Visibility: 10 miles , 16 km
2014/07/23 23:54 KNAK 232354Z AUTO 17010KT 10SM CLR 28/24 A2983 RMK AO2 SLP105 T02830244 10317 20283 53001
KW29 - Stevensville, Maryland, USA
Distance from station: SSE 31mi, 50km
Updated: Wed, 23-Jul-2014 7:56pm EDT

 Wind from SSE
Wind: SSE 7 mph , 11 km/h
Temperature: 84°F , 29°C
Heat Index: 90°F , 32°C
Dew Point: 73°F , 23°C
Humidity: 70%
Barometer: 29.84 inHg , 1010.5 hPa
Visibility: 10 miles , 16 km
2014/07/23 23:56 KW29 232356Z AUTO 16006KT 10SM 29/23 A2984 RMK AO1 LTG DSNT W THRU N
 
KCGS - College Park, Maryland, USA
Distance from station: SW 38mi, 61km
Updated: Wed, 23-Jul-2014 7:55pm EDT
Mostly cloudy
Mostly cloudy
 Wind from NW
Wind: NW 12 mph , 19 km/h
Temperature: 90°F , 32°C
Heat Index: 96°F , 36°C
Dew Point: 70°F , 21°C
Humidity: 52%
Barometer: 29.84 inHg , 1010.5 hPa
Clouds: Mostly cloudy
Visibility: 10 miles , 16 km
Cloud details: Mostly cloudy 6000 ft
2014/07/23 23:55 KCGS 232355Z AUTO 32010KT 10SM BKN060 32/21 A2984 RMK AO1
KGAI - Gaithersburg, Maryland, USA
Distance from station: WSW 40mi, 65km
Updated: Wed, 23-Jul-2014 7:55pm EDT
Mostly cloudy
Mostly cloudy
 Wind from calm
Wind: Calm
Temperature: 73°F , 23°C
Dew Point: 70°F , 21°C
Humidity: 89%
Barometer: 29.92 inHg , 1013.2 hPa
Clouds: Mostly cloudy
Visibility: 8 miles , 13 km
Cloud details: Few Clouds 4700 ft
Partly cloudy 6000 ft
Mostly cloudy 9000 ft
2014/07/23 23:55 KGAI 232355Z AUTO 00000KT 8SM FEW047 SCT060 BKN090 23/21 A2992 RMK AO1 LTG DSNT NE TSE40 P0011 60016 10330 20230 403300220 52014
 
KTHV - York, Pennsylvania, USA
Distance from station: NNW 40mi, 65km
Updated: Wed, 23-Jul-2014 7:53pm EDT
Clear
Clear
 Wind from calm
Wind: Calm
Temperature: 73°F , 23°C
Dew Point: 70°F , 21°C
Humidity: 89%
Barometer: 29.86 inHg , 1011.2 hPa
Clouds: Clear
Visibility: 10 miles , 16 km
2014/07/23 23:53 KTHV 232353Z AUTO 00000KT 10SM CLR 23/21 A2986 RMK AO2 LTG DSNT NE-SE RAE19 SLP110 P0001 60079 T02280211 10333 20217 53016
KFDK - Frederick, Maryland, USA
Distance from station: W 47mi, 75km
Updated: Wed, 23-Jul-2014 7:48pm EDT
Mostly cloudy
Mostly cloudy
 Wind from calm
Wind: Calm
Temperature: 79°F , 26°C
Dew Point: 75°F , 24°C
Humidity: 89%
Barometer: 29.88 inHg , 1011.9 hPa
Clouds: Mostly cloudy
Visibility: 10 miles , 16 km
Cloud details: 7500 ft
Mostly cloudy 10000 ft
2014/07/23 23:48 KFDK 232348Z 00000KT 10SM SCY075 BKN100 26/24 A2988
 
KESN - Easton/Newnam, Maryland, USA
Distance from station: SSE 48mi, 78km
Updated: Wed, 23-Jul-2014 7:55pm EDT
Few Clouds
Few Clouds
 Wind from S
Wind: S 6 mph , 9 km/h
Temperature: 86°F , 30°C
Heat Index: 95°F , 35°C
Dew Point: 75°F , 24°C
Humidity: 70%
Barometer: 29.89 inHg , 1012.2 hPa
Clouds: Few Clouds
Visibility: 10 miles , 16 km
Cloud details: Few Clouds 10000 ft
2014/07/23 23:55 KESN 232355Z 19005KT 10SM FEW100 30/24 A2989
KDCA - Washington/Natl, Washington D.c., USA
Distance from station: SW 49mi, 79km
Updated: Wed, 23-Jul-2014 8:13pm EDT
Mostly cloudy
Mostly cloudy
 Wind from NW
Wind: NW 16 mph , 26 km/h, Gust: 21 mph , 33 km/h
Temperature: 88°F , 31°C
Heat Index: 91°F , 33°C
Dew Point: 66°F , 19°C
Humidity: 49%
Barometer: 29.84 inHg , 1010.5 hPa
Clouds: Mostly cloudy
Visibility: 10 miles , 16 km
Cloud details: Partly cloudy 6000 ft
Mostly cloudy 8000 ft
Mostly cloudy 9500 ft
Mostly cloudy 20000 ft
2014/07/24 00:13 KDCA 240013Z 32014G18KT 10SM SCT060CB BKN080 BKN095 BKN200 31/19 A2984 RMK AO2 WSHFT 2357 TSE04 VC NE-SE MOV SE
 
KLNS - Lancaster, Pennsylvania, USA
Distance from station: N 49mi, 79km
Updated: Wed, 23-Jul-2014 7:53pm EDT
Nearby thunderstorm, Light rain, Few clouds
Nearby thunderstorm, Light rain, Few clouds
 Wind from SW
Wind: SW 12 mph , 19 km/h
Temperature: 73°F , 23°C
Dew Point: 70°F , 21°C
Humidity: 89%
Barometer: 29.86 inHg , 1011.2 hPa
Summary: Nearby thunderstorm, Light rain
Clouds: Few Clouds
Visibility: 7 miles , 11 km
Cloud details: Few Clouds 11000 ft
2014/07/23 23:53 KLNS 232353Z AUTO 23010KT 7SM VCTS -RA FEW110 23/21 A2986 RMK AO2 LTG DSNT ALQDS RAE36B49 TSE32 SLP107 P0009 60068 T02280211 10322 20217 $
KILG - Wilmington, Delaware, USA
Distance from station: ENE 50mi, 81km
Updated: Wed, 23-Jul-2014 8:08pm EDT
Light rain, Mostly cloudy
Light rain, Mostly cloudy
 Wind from NW
Wind: NW 26 mph , 43 km/h, Gust: 32 mph , 52 km/h
Temperature: 79°F , 26°C
Dew Point: 66°F , 19°C
Humidity: 65%
Barometer: 29.89 inHg , 1012.2 hPa
Summary: Light rain
Clouds: Mostly cloudy
Visibility: 10 miles , 16 km
Cloud details: Mostly cloudy 4000 ft
Mostly cloudy 5500 ft
2014/07/24 00:08 KILG 240008Z 31023G28KT 10SM -RA BKN040 BKN055 26/19 A2989 RMK AO2 PK WND 31029/2355 WSHFT 2348 RAB07 PRESRR P0000 T02560189